This is the latest recevied weather packets stored in our database for station/object IU2PLZ-12. If no packets are shown the sender has not sent any weather packets the latest 10 day(s).
| Time | Temp. | Humidity | Pressure | Rain* | Wind** | Luminosity | Snow |
|---|---|---|---|---|---|---|---|
| 1777718820 | 28.89° C | 25% | 1006.8 hPa | - | - | - | - |
| 1777717920 | 28.89° C | 25% | 1007.1 hPa | - | - | - | - |
| 1777717020 | 28.33° C | 24% | 1007.3 hPa | - | - | - | - |
| 1777716119 | 28.89° C | 24% | 1007.5 hPa | - | - | - | - |
| 1777715279 | 29.44° C | 23% | 1007.6 hPa | - | - | - | - |
| 1777715219 | 29.44° C | 23% | 1007.6 hPa | - | - | - | - |
| 1777714319 | 31.11° C | 23% | 1007.7 hPa | - | - | - | - |
| 1777713419 | 31.11° C | 22% | 1007.8 hPa | - | - | - | - |
| 1777712519 | 32.22° C | 22% | 1008 hPa | - | - | - | - |
| 1777711618 | 32.22° C | 22% | 1008.1 hPa | - | - | - | - |
| 1777710718 | 33.33° C | 22% | 1007.8 hPa | - | - | - | - |
| 1777709818 | 32.78° C | 23% | 1008.2 hPa | - | - | - | - |
| 1777708918 | 32.78° C | 24% | 1008.3 hPa | - | - | - | - |
| 1777708018 | 31.11° C | 25% | 1008.4 hPa | - | - | - | - |
| 1777707117 | 31.67° C | 25% | 1008.4 hPa | - | - | - | - |
| 1777706217 | 30° C | 26% | 1008.5 hPa | - | - | - | - |
| 1777705317 | 26.11° C | 30% | 1008.5 hPa | - | - | - | - |
| 1777704417 | 20° C | 41% | 1008.6 hPa | - | - | - | - |
| 1777703517 | 17.22° C | 46% | 1008.4 hPa | - | - | - | - |
| 1777702616 | 15.56° C | 46% | 1008.5 hPa | - | - | - | - |
| 1777701716 | 14.44° C | 46% | 1008.5 hPa | - | - | - | - |
| 1777700816 | 13.89° C | 47% | 1008.6 hPa | - | - | - | - |
| 1777699916 | 12.78° C | 48% | 1008.5 hPa | - | - | - | - |
| 1777699016 | 12.78° C | 47% | 1008.3 hPa | - | - | - | - |
| 1777698174 | 12.22° C | 48% | 1008.2 hPa | - | - | - | - |
* Rain since midnight (hover to see other rain measurements)
** Current wind speed in m/s (hover to see current wind gust speed)